FACT/CPT METAR and TAF weather

Enter ICAO airport designator
Station Type Date Time Source
FACT METAR 2023/03/31 00:00 UTC NOAA

FACT 310000Z 18011KT CAVOK 16/13 Q1018 NOSIG


Station Type Date Time Source
FACT Decoded METAR 2023/03/31 00:00 UTC NOAA

Cape Town, Cape Town International Airport, South Africa (FACT) 33-59S 018-36E 0M
Mar 30, 2023 - 08:00 PM EDT / 2023.03.31 0000 UTC
Wind: from the S (180 degrees) at 13 MPH (11 KT):0
Visibility: greater than 7 mile(s):0
Temperature: 60 F (16 C)
Dew Point: 55 F (13 C)
Relative Humidity: 82%
Pressure (altimeter): 30.06 in. Hg (1018 hPa)
ob: FACT 310000Z 18011KT CAVOK 16/13 Q1018 NOSIG
cycle: 0

Station Type Date Time Source
FACT TAF 2023/03/31 00:00 UTC NOAA

TAF FACT 302200Z 3100/0106 18012KT 9999 FEW030 TX24/3112Z TN13/3104Z
FM311000 18018KT CAVOK PROB30
TEMPO 3113/3116 18022G32KT

Example: see airport list